createdAt,value
2019-03-18T00:00:01.070Z,0.00
2019-03-18T00:01:01.059Z,0.00
2019-03-18T00:02:01.052Z,0.00
2019-03-18T00:03:01.182Z,0.00
2019-03-18T00:04:01.061Z,0.00
2019-03-18T00:05:01.061Z,0.00
2019-03-18T00:06:01.049Z,0.00
2019-03-18T00:07:01.043Z,0.00
2019-03-18T00:08:01.001Z,0.00
2019-03-18T00:09:01.052Z,0.00
2019-03-18T00:10:00.996Z,0.00
2019-03-18T00:11:00.949Z,0.00
2019-03-18T00:12:00.938Z,0.00
2019-03-18T00:13:00.935Z,0.00
2019-03-18T00:14:00.913Z,0.00
2019-03-18T00:15:02.075Z,0.00
2019-03-18T00:16:00.901Z,0.00
2019-03-18T00:17:00.953Z,0.00
2019-03-18T00:18:00.870Z,0.00
2019-03-18T00:19:00.936Z,0.00
2019-03-18T00:20:00.920Z,0.00
2019-03-18T00:21:00.931Z,0.00
2019-03-18T00:22:00.902Z,0.00
2019-03-18T00:23:00.861Z,0.00
2019-03-18T00:24:00.836Z,0.00
2019-03-18T00:25:01.830Z,0.00
2019-03-18T00:26:00.824Z,0.00
2019-03-18T00:27:01.240Z,0.00
2019-03-18T00:28:00.815Z,0.00
2019-03-18T00:29:00.794Z,0.00
2019-03-18T00:30:00.747Z,0.00
2019-03-18T00:31:00.753Z,0.00
2019-03-18T00:32:00.721Z,0.00
2019-03-18T00:33:03.246Z,0.00
2019-03-18T00:34:00.737Z,0.00
2019-03-18T00:35:00.690Z,0.00
2019-03-18T00:36:00.685Z,0.00
2019-03-18T00:37:00.680Z,0.00
2019-03-18T00:38:00.669Z,0.00
2019-03-18T00:39:00.704Z,0.00
2019-03-18T00:40:00.636Z,0.00
2019-03-18T00:41:00.621Z,0.00
2019-03-18T00:42:00.620Z,0.00
2019-03-18T00:43:00.631Z,0.00
2019-03-18T00:44:00.592Z,0.00
2019-03-18T00:45:13.756Z,0.00
2019-03-18T00:46:01.584Z,0.00
2019-03-18T00:47:00.567Z,0.00
2019-03-18T00:48:00.586Z,0.00
2019-03-18T00:49:00.580Z,0.00
2019-03-18T00:50:00.603Z,0.00
2019-03-18T00:51:00.778Z,0.00
2019-03-18T00:52:00.584Z,0.00
2019-03-18T00:53:00.494Z,0.00
2019-03-18T00:54:00.535Z,0.00
2019-03-18T00:55:00.478Z,0.00
2019-03-18T00:56:00.535Z,0.00
2019-03-18T00:57:00.510Z,0.00
2019-03-18T00:58:00.459Z,0.00
2019-03-18T00:59:00.430Z,0.00
2019-03-18T01:00:00.451Z,0.00
2019-03-18T01:01:00.409Z,0.00
2019-03-18T01:02:00.402Z,0.00
2019-03-18T01:03:00.525Z,0.00
2019-03-18T01:04:00.397Z,0.00
2019-03-18T01:05:00.397Z,0.00
2019-03-18T01:06:00.441Z,0.00
2019-03-18T01:07:00.381Z,0.00
2019-03-18T01:08:00.340Z,0.00
2019-03-18T01:09:00.438Z,0.00
2019-03-18T01:10:00.358Z,0.00
2019-03-18T01:11:00.298Z,0.00
2019-03-18T01:12:00.292Z,0.00
2019-03-18T01:13:00.329Z,0.00
2019-03-18T01:14:00.279Z,0.00
2019-03-18T01:15:00.431Z,0.00
2019-03-18T01:16:00.251Z,0.00
2019-03-18T01:17:00.240Z,0.00
2019-03-18T01:18:00.266Z,0.00
2019-03-18T01:19:00.306Z,0.00
2019-03-18T01:20:00.299Z,0.00
2019-03-18T01:21:00.402Z,0.00
2019-03-18T01:22:00.189Z,0.00
2019-03-18T01:23:00.225Z,0.00
2019-03-18T01:24:00.177Z,0.00
2019-03-18T01:25:00.375Z,0.00
2019-03-18T01:26:00.140Z,0.00
2019-03-18T01:27:00.384Z,0.00
2019-03-18T01:28:00.160Z,0.00
2019-03-18T01:29:00.121Z,0.00
2019-03-18T01:30:00.376Z,0.00
2019-03-18T01:31:00.100Z,0.00
2019-03-18T01:32:00.216Z,0.00
2019-03-18T01:33:00.266Z,0.00
2019-03-18T01:34:00.066Z,0.00
2019-03-18T01:35:00.107Z,0.00
2019-03-18T01:36:00.037Z,0.00
2019-03-18T01:37:00.076Z,0.00
2019-03-18T01:38:00.015Z,0.00
2019-03-18T01:39:00.042Z,0.00
2019-03-18T01:40:00.029Z,0.00
2019-03-18T01:41:00.005Z,0.00
2019-03-18T01:41:59.990Z,0.00
2019-03-18T01:42:59.991Z,0.00
2019-03-18T01:43:59.961Z,0.00
2019-03-18T01:45:00.267Z,0.00
2019-03-18T01:45:59.947Z,0.00
2019-03-18T01:46:59.932Z,0.00
2019-03-18T01:47:59.925Z,0.00
2019-03-18T01:48:59.902Z,0.00
2019-03-18T01:49:59.887Z,0.00
2019-03-18T01:51:00.327Z,0.00
2019-03-18T01:51:59.870Z,0.00
2019-03-18T01:52:59.853Z,0.00
2019-03-18T01:53:59.857Z,0.00
2019-03-18T01:54:59.836Z,0.00
2019-03-18T01:55:59.899Z,0.00
2019-03-18T01:56:59.912Z,0.00
2019-03-18T01:57:59.814Z,0.00
2019-03-18T01:58:59.866Z,0.00
2019-03-18T01:59:59.781Z,0.00
2019-03-18T02:00:59.778Z,0.00
2019-03-18T02:01:59.763Z,0.00
2019-03-18T02:02:59.785Z,0.00
2019-03-18T02:03:59.757Z,0.00
2019-03-18T02:04:59.733Z,0.00
2019-03-18T02:05:59.713Z,0.00
2019-03-18T02:06:59.705Z,0.00
2019-03-18T02:07:59.716Z,0.00
2019-03-18T02:08:59.856Z,0.00
2019-03-18T02:09:59.710Z,0.00
2019-03-18T02:10:59.665Z,0.00
2019-03-18T02:11:59.663Z,0.00
2019-03-18T02:12:59.659Z,0.00
2019-03-18T02:13:59.629Z,0.00
2019-03-18T02:14:59.740Z,0.00
2019-03-18T02:15:59.622Z,0.00
2019-03-18T02:16:59.624Z,0.00
2019-03-18T02:17:59.678Z,0.00
2019-03-18T02:18:59.632Z,0.00
2019-03-18T02:19:59.564Z,0.00
2019-03-18T02:20:59.879Z,0.00
2019-03-18T02:21:59.545Z,0.00
2019-03-18T02:22:59.537Z,0.00
2019-03-18T02:23:59.545Z,0.00
2019-03-18T02:24:59.519Z,0.00
2019-03-18T02:25:59.501Z,0.00
2019-03-18T02:26:59.718Z,0.00
2019-03-18T02:27:59.483Z,0.00
2019-03-18T02:28:59.466Z,0.00
2019-03-18T02:29:59.545Z,0.00
2019-03-18T02:30:59.453Z,0.00
2019-03-18T02:31:59.461Z,0.00
2019-03-18T02:32:59.577Z,0.00
2019-03-18T02:33:59.423Z,0.00
2019-03-18T02:34:59.426Z,0.00
2019-03-18T02:35:59.394Z,0.00
2019-03-18T02:36:59.390Z,0.00
2019-03-18T02:37:59.389Z,0.00
2019-03-18T02:38:59.428Z,0.00
2019-03-18T02:39:59.353Z,0.00
2019-03-18T02:40:59.342Z,0.00
2019-03-18T02:41:59.336Z,0.00
2019-03-18T02:42:59.333Z,0.00
2019-03-18T02:43:59.320Z,0.00
2019-03-18T02:44:59.598Z,0.00
2019-03-18T02:46:09.877Z,0.00
2019-03-18T02:47:00.276Z,0.00
2019-03-18T02:47:59.307Z,0.00
2019-03-18T02:48:59.273Z,0.00
2019-03-18T02:49:59.245Z,0.00
2019-03-18T02:50:59.340Z,0.00
2019-03-18T02:51:59.272Z,0.00
2019-03-18T02:52:59.219Z,0.00
2019-03-18T02:53:59.204Z,0.00
2019-03-18T02:54:59.204Z,0.00
2019-03-18T02:55:59.183Z,0.00
2019-03-18T02:56:59.290Z,0.00
2019-03-18T02:57:59.188Z,0.00
2019-03-18T02:58:59.208Z,0.00
2019-03-18T02:59:59.151Z,0.00
2019-03-18T03:00:59.151Z,0.00
2019-03-18T03:01:59.135Z,0.00
2019-03-18T03:02:59.156Z,0.00
2019-03-18T03:03:59.119Z,0.00
2019-03-18T03:04:59.091Z,0.00
2019-03-18T03:05:59.082Z,0.00
2019-03-18T03:06:59.079Z,0.00
2019-03-18T03:07:59.076Z,0.00
2019-03-18T03:08:59.199Z,0.00
2019-03-18T03:09:59.045Z,0.00
2019-03-18T03:10:59.024Z,0.00
2019-03-18T03:11:59.020Z,0.00
2019-03-18T03:12:59.007Z,0.00
2019-03-18T03:13:58.988Z,0.00
2019-03-18T03:14:59.021Z,0.00
2019-03-18T03:15:58.979Z,0.00
2019-03-18T03:16:58.966Z,0.00
2019-03-18T03:17:58.966Z,0.00
2019-03-18T03:18:58.934Z,0.00
2019-03-18T03:19:58.929Z,0.00
2019-03-18T03:20:58.955Z,0.00
2019-03-18T03:21:58.904Z,0.00
2019-03-18T03:22:58.901Z,0.00
2019-03-18T03:23:58.910Z,0.00
2019-03-18T03:24:58.869Z,0.00
2019-03-18T03:25:58.878Z,0.00
2019-03-18T03:26:59.142Z,0.00
2019-03-18T03:27:58.852Z,0.00
2019-03-18T03:28:58.826Z,0.00
2019-03-18T03:29:58.816Z,0.00
2019-03-18T03:30:58.832Z,0.00
2019-03-18T03:31:58.791Z,0.00
2019-03-18T03:32:58.910Z,0.00
2019-03-18T03:33:58.851Z,0.00
2019-03-18T03:34:58.786Z,0.00
2019-03-18T03:35:58.753Z,0.00
2019-03-18T03:36:58.739Z,0.00
2019-03-18T03:37:58.734Z,0.00
2019-03-18T03:38:58.854Z,0.00
2019-03-18T03:39:58.751Z,0.00
2019-03-18T03:40:58.743Z,0.00
2019-03-18T03:41:58.701Z,0.00
2019-03-18T03:42:58.692Z,0.00
2019-03-18T03:43:58.674Z,0.00
2019-03-18T03:44:58.862Z,0.00
2019-03-18T03:45:58.697Z,0.00
2019-03-18T03:46:58.633Z,0.00
2019-03-18T03:47:58.646Z,0.00
2019-03-18T03:48:58.621Z,0.00
2019-03-18T03:49:58.625Z,0.00
2019-03-18T03:50:58.635Z,0.00
2019-03-18T03:51:58.589Z,0.00
2019-03-18T03:52:58.581Z,0.00
2019-03-18T03:53:58.561Z,0.00
2019-03-18T03:54:58.560Z,0.00
2019-03-18T03:55:58.550Z,0.00
2019-03-18T03:56:58.662Z,0.00
2019-03-18T03:57:58.515Z,0.00
2019-03-18T03:58:58.521Z,0.00
2019-03-18T03:59:58.504Z,0.00
2019-03-18T04:00:58.485Z,0.00
2019-03-18T04:01:58.478Z,0.00
2019-03-18T04:02:58.502Z,0.00
2019-03-18T04:03:58.464Z,0.00
2019-03-18T04:04:58.458Z,0.00
2019-03-18T04:05:58.439Z,0.00
2019-03-18T04:06:58.418Z,0.00
2019-03-18T04:07:58.410Z,0.00
2019-03-18T04:08:58.521Z,0.00
2019-03-18T04:09:58.413Z,0.00
2019-03-18T04:10:58.385Z,0.00
2019-03-18T04:11:58.376Z,0.00
2019-03-18T04:12:58.378Z,0.00
2019-03-18T04:13:58.362Z,0.00
2019-03-18T04:14:58.393Z,0.00
2019-03-18T04:15:58.325Z,0.00
2019-03-18T04:17:02.618Z,0.00
2019-03-18T04:17:58.321Z,0.00
2019-03-18T04:18:58.294Z,0.00
2019-03-18T04:19:58.282Z,0.00
2019-03-18T04:20:58.428Z,0.00
2019-03-18T04:21:58.282Z,0.00
2019-03-18T04:22:58.250Z,0.00
2019-03-18T04:23:58.248Z,0.00
2019-03-18T04:24:58.267Z,0.00
2019-03-18T04:25:58.223Z,0.00
2019-03-18T04:26:58.264Z,0.00
2019-03-18T04:27:58.206Z,0.00
2019-03-18T04:28:58.182Z,0.00
2019-03-18T04:29:58.193Z,0.00
2019-03-18T04:30:58.161Z,0.00
2019-03-18T04:31:58.155Z,0.00
2019-03-18T04:32:58.281Z,0.00
2019-03-18T04:33:58.126Z,0.00
2019-03-18T04:34:58.117Z,0.00
2019-03-18T04:35:58.148Z,0.00
2019-03-18T04:36:58.094Z,0.00
2019-03-18T04:37:58.085Z,0.00
2019-03-18T04:38:58.191Z,0.00
2019-03-18T04:39:58.069Z,0.00
2019-03-18T04:40:58.056Z,0.00
2019-03-18T04:41:58.064Z,0.00
2019-03-18T04:42:58.041Z,0.00
2019-03-18T04:43:58.094Z,0.00
2019-03-18T04:44:58.656Z,0.00
2019-03-18T04:45:58.003Z,0.00
2019-03-18T04:46:57.997Z,0.00
2019-03-18T04:47:57.979Z,0.00
2019-03-18T04:48:57.974Z,0.00
2019-03-18T04:49:57.976Z,0.00
2019-03-18T04:50:58.072Z,0.00
2019-03-18T04:51:57.940Z,0.00
2019-03-18T04:52:57.932Z,0.00
2019-03-18T04:53:57.992Z,0.00
2019-03-18T04:54:57.931Z,0.00
2019-03-18T04:55:57.902Z,0.00
2019-03-18T04:56:58.010Z,0.00
2019-03-18T04:57:57.894Z,0.00
2019-03-18T04:58:57.870Z,0.00
2019-03-18T04:59:57.854Z,0.00
2019-03-18T05:00:57.838Z,0.00
2019-03-18T05:01:57.831Z,0.00
2019-03-18T05:02:58.058Z,0.00
2019-03-18T05:03:57.890Z,0.00
2019-03-18T05:04:57.805Z,0.00
2019-03-18T05:05:57.792Z,0.00
2019-03-18T05:06:57.782Z,0.00
2019-03-18T05:07:57.764Z,0.00
2019-03-18T05:08:57.881Z,0.00
2019-03-18T05:09:57.752Z,0.00
2019-03-18T05:10:57.772Z,0.00
2019-03-18T05:11:57.752Z,0.00
2019-03-18T05:12:57.733Z,0.00
2019-03-18T05:13:57.788Z,0.00
2019-03-18T05:14:57.733Z,4.00
2019-03-18T05:15:57.686Z,0.00
2019-03-18T05:16:57.669Z,4.00
2019-03-18T05:17:57.658Z,4.00
2019-03-18T05:18:57.647Z,4.00
2019-03-18T05:19:57.637Z,4.00
2019-03-18T05:20:57.906Z,8.00
2019-03-18T05:21:57.617Z,8.00
2019-03-18T05:22:57.606Z,12.00
2019-03-18T05:23:57.600Z,16.00
2019-03-18T05:24:57.589Z,20.00
2019-03-18T05:25:57.570Z,24.00
2019-03-18T05:26:57.685Z,32.00
2019-03-18T05:27:57.566Z,36.00
2019-03-18T05:28:57.539Z,40.00
2019-03-18T05:29:57.527Z,44.00
2019-03-18T05:30:57.523Z,44.00
2019-03-18T05:31:57.505Z,56.00
2019-03-18T05:32:57.551Z,64.00
2019-03-18T05:33:57.540Z,64.00
2019-03-18T05:34:57.521Z,72.00
2019-03-18T05:35:57.499Z,88.00
2019-03-18T05:36:57.475Z,108.00
2019-03-18T05:37:57.460Z,116.00
2019-03-18T05:38:57.558Z,124.00
2019-03-18T05:39:57.431Z,136.00
2019-03-18T05:40:57.425Z,140.00
2019-03-18T05:41:57.402Z,128.00
2019-03-18T05:42:57.424Z,124.00
2019-03-18T05:43:57.413Z,136.00
2019-03-18T05:44:57.501Z,136.00
2019-03-18T05:45:57.358Z,172.00
2019-03-18T05:46:57.363Z,240.00
2019-03-18T05:47:57.337Z,276.00
2019-03-18T05:48:57.396Z,308.00
2019-03-18T05:49:57.319Z,312.00
2019-03-18T05:50:57.343Z,304.00
2019-03-18T05:51:57.302Z,268.00
2019-03-18T05:52:57.290Z,256.00
2019-03-18T05:53:57.303Z,220.00
2019-03-18T05:54:57.268Z,160.00
2019-03-18T05:55:57.477Z,140.00
2019-03-18T05:56:57.276Z,148.00
2019-03-18T05:57:57.230Z,168.00
2019-03-18T05:58:57.219Z,208.00
2019-03-18T05:59:57.241Z,232.00
2019-03-18T06:00:57.253Z,260.00
2019-03-18T06:01:57.208Z,268.00
2019-03-18T06:02:57.267Z,292.00
2019-03-18T06:03:57.166Z,272.00
2019-03-18T06:04:57.161Z,268.00
2019-03-18T06:05:57.148Z,236.00
2019-03-18T06:06:57.149Z,248.00
2019-03-18T06:07:57.136Z,308.00
2019-03-18T06:08:57.145Z,288.00
2019-03-18T06:09:57.170Z,288.00
2019-03-18T06:10:57.094Z,324.00
2019-03-18T06:11:57.086Z,284.00
2019-03-18T06:12:57.088Z,264.00
2019-03-18T06:13:57.056Z,288.00
2019-03-18T06:14:57.085Z,336.00
2019-03-18T06:15:57.046Z,324.00
2019-03-18T06:16:57.032Z,312.00
2019-03-18T06:17:57.025Z,332.00
2019-03-18T06:19:00.077Z,312.00
2019-03-18T06:19:57.003Z,300.00
2019-03-18T06:20:57.213Z,364.00
2019-03-18T06:21:56.978Z,500.00
2019-03-18T06:22:56.957Z,616.00
2019-03-18T06:23:56.971Z,508.00
2019-03-18T06:24:56.952Z,472.00
2019-03-18T06:25:56.929Z,572.00
2019-03-18T06:26:57.064Z,788.00
2019-03-18T06:27:56.904Z,880.00
2019-03-18T06:28:56.897Z,804.00
2019-03-18T06:29:56.890Z,852.00
2019-03-18T06:30:56.867Z,812.00
2019-03-18T06:31:56.858Z,820.00
2019-03-18T06:32:56.893Z,1048.00
2019-03-18T06:33:56.836Z,1312.00
2019-03-18T06:34:56.824Z,1500.00
2019-03-18T06:35:56.816Z,1656.00
2019-03-18T06:36:56.808Z,1604.00
2019-03-18T06:37:56.925Z,1588.00
2019-03-18T06:38:56.826Z,1596.00
2019-03-18T06:39:56.799Z,1564.00
2019-03-18T06:40:56.789Z,1364.00
2019-03-18T06:41:56.788Z,1416.00
2019-03-18T06:42:56.745Z,1336.00
2019-03-18T06:43:56.732Z,1332.00
2019-03-18T06:44:56.748Z,1472.00
2019-03-18T06:45:56.815Z,1716.00
2019-03-18T06:46:56.703Z,1772.00
2019-03-18T06:48:04.741Z,2024.00
2019-03-18T06:48:57.694Z,2532.00
2019-03-18T06:49:56.742Z,3140.00
2019-03-18T06:50:56.690Z,3692.00
2019-03-18T06:51:56.646Z,3624.00
2019-03-18T06:52:56.654Z,3872.00
2019-03-18T06:53:56.616Z,4076.00
2019-03-18T06:54:56.623Z,4000.00
2019-03-18T06:55:56.615Z,3532.00
2019-03-18T06:56:56.723Z,3576.00
2019-03-18T06:57:57.650Z,3960.00
2019-03-18T06:58:56.565Z,3716.00
2019-03-18T06:59:56.562Z,3516.00
2019-03-18T07:00:56.558Z,3148.00
2019-03-18T07:01:56.533Z,2896.00
2019-03-18T07:02:56.643Z,2568.00
2019-03-18T07:03:56.509Z,2496.00
2019-03-18T07:04:56.538Z,2832.00
2019-03-18T07:05:56.484Z,3544.00
2019-03-18T07:06:56.474Z,4240.00
2019-03-18T07:07:56.466Z,4168.00
2019-03-18T07:08:56.493Z,4756.00
2019-03-18T07:09:56.457Z,5224.00
2019-03-18T07:10:56.434Z,5580.00
2019-03-18T07:11:56.425Z,5688.00
2019-03-18T07:12:56.413Z,5276.00
2019-03-18T07:13:56.410Z,5736.00
2019-03-18T07:14:56.518Z,6516.00
2019-03-18T07:15:56.407Z,7368.00
2019-03-18T07:16:56.382Z,7180.00
2019-03-18T07:17:56.357Z,6920.00
2019-03-18T07:18:56.354Z,6984.00
2019-03-18T07:19:56.336Z,7944.00
2019-03-18T07:20:56.450Z,7328.00
2019-03-18T07:21:56.339Z,8636.00
2019-03-18T07:22:56.305Z,7712.00
2019-03-18T07:23:56.296Z,6336.00
2019-03-18T07:24:56.278Z,6000.00
2019-03-18T07:25:56.270Z,7708.00
2019-03-18T07:26:56.404Z,6976.00
2019-03-18T07:27:56.265Z,8104.00
2019-03-18T07:28:56.240Z,8252.00
2019-03-18T07:29:56.230Z,8720.00
2019-03-18T07:30:56.214Z,9152.00
2019-03-18T07:31:56.204Z,9744.00
2019-03-18T07:32:56.320Z,10364.00
2019-03-18T07:33:56.210Z,10544.00
2019-03-18T07:34:56.179Z,8700.00
2019-03-18T07:35:56.161Z,7928.00
2019-03-18T07:36:56.712Z,7760.00
2019-03-18T07:37:56.151Z,8092.00
2019-03-18T07:38:56.265Z,8500.00
2019-03-18T07:39:56.125Z,8732.00
2019-03-18T07:40:56.109Z,9048.00
2019-03-18T07:41:56.113Z,9380.00
2019-03-18T07:42:56.083Z,9308.00
2019-03-18T07:43:56.088Z,9612.00
2019-03-18T07:44:56.139Z,8968.00
2019-03-18T07:45:56.062Z,7632.00
2019-03-18T07:46:56.042Z,7028.00
2019-03-18T07:47:56.099Z,7100.00
2019-03-18T07:48:56.022Z,7764.00
2019-03-18T07:49:56.028Z,8868.00
2019-03-18T07:50:56.122Z,9476.00
2019-03-18T07:51:55.994Z,8760.00
2019-03-18T07:52:55.993Z,8160.00
2019-03-18T07:53:55.968Z,7664.00
2019-03-18T07:54:55.955Z,7104.00
2019-03-18T07:55:55.956Z,6900.00
2019-03-18T07:56:55.960Z,6748.00
2019-03-18T07:57:55.924Z,6180.00
2019-03-18T07:58:55.913Z,6108.00
2019-03-18T07:59:55.901Z,7004.00
2019-03-18T08:00:55.951Z,8224.00
2019-03-18T08:01:55.877Z,9424.00
2019-03-18T08:02:56.000Z,9828.00
2019-03-18T08:03:55.874Z,9224.00
2019-03-18T08:04:55.851Z,8292.00
2019-03-18T08:05:55.838Z,8044.00
2019-03-18T08:06:55.827Z,8052.00
2019-03-18T08:08:04.547Z,8600.00
2019-03-18T08:08:55.807Z,9312.00
2019-03-18T08:10:03.360Z,9080.00
2019-03-18T08:10:55.783Z,7856.00
2019-03-18T08:11:55.932Z,6908.00
2019-03-18T08:12:55.762Z,6852.00
2019-03-18T08:13:55.899Z,7284.00
2019-03-18T08:14:55.767Z,7804.00
2019-03-18T08:15:55.727Z,7860.00
2019-03-18T08:16:55.718Z,8048.00
2019-03-18T08:17:55.723Z,7956.00
2019-03-18T08:18:55.693Z,7012.00
2019-03-18T08:19:55.809Z,6948.00
2019-03-18T08:20:55.675Z,7556.00
2019-03-18T08:21:55.664Z,8556.00
2019-03-18T08:22:55.659Z,8652.00
2019-03-18T08:23:55.755Z,9072.00
2019-03-18T08:24:55.636Z,8268.00
2019-03-18T08:25:55.800Z,6848.00
2019-03-18T08:26:55.648Z,6416.00
2019-03-18T08:27:55.614Z,6420.00
2019-03-18T08:28:55.586Z,8060.00
2019-03-18T08:29:55.583Z,8800.00
2019-03-18T08:30:55.598Z,8828.00
2019-03-18T08:31:55.725Z,8932.00
2019-03-18T08:32:55.599Z,9076.00
2019-03-18T08:33:55.542Z,9320.00
2019-03-18T08:34:55.562Z,9888.00
2019-03-18T08:35:55.515Z,10556.00
2019-03-18T08:36:55.505Z,11604.00
2019-03-18T08:37:55.620Z,13516.00
2019-03-18T08:38:55.487Z,12360.00
2019-03-18T08:39:55.473Z,12420.00
2019-03-18T08:40:55.465Z,14248.00
2019-03-18T08:41:55.466Z,15136.00
2019-03-18T08:42:55.444Z,15316.00
2019-03-18T08:43:55.572Z,12288.00
2019-03-18T08:44:55.428Z,11000.00
2019-03-18T08:45:55.424Z,11048.00
2019-03-18T08:46:55.411Z,13188.00
2019-03-18T08:47:55.386Z,12404.00
2019-03-18T08:48:56.199Z,15380.00
2019-03-18T08:49:55.427Z,15540.00
2019-03-18T08:50:55.347Z,16800.00
2019-03-18T08:51:55.347Z,13416.00
2019-03-18T08:52:55.328Z,13024.00
2019-03-18T08:53:55.360Z,11252.00
2019-03-18T08:54:55.330Z,12388.00
2019-03-18T08:55:55.451Z,15064.00
2019-03-18T08:56:55.344Z,14428.00
2019-03-18T08:57:55.287Z,12732.00
2019-03-18T08:58:55.270Z,12228.00
2019-03-18T08:59:55.276Z,11948.00
2019-03-18T09:00:55.274Z,12772.00
2019-03-18T09:01:55.284Z,12792.00
2019-03-18T09:02:56.483Z,15612.00
2019-03-18T09:03:55.242Z,14392.00
2019-03-18T09:04:55.224Z,14136.00
2019-03-18T09:05:55.214Z,11548.00
2019-03-18T09:06:55.171Z,11620.00
2019-03-18T09:07:55.287Z,13308.00
2019-03-18T09:08:55.150Z,13456.00
2019-03-18T09:09:55.153Z,13496.00
2019-03-18T09:10:55.125Z,14024.00
2019-03-18T09:11:55.124Z,13888.00
2019-03-18T09:12:55.135Z,15200.00
2019-03-18T09:13:55.161Z,19488.00
2019-03-18T09:14:55.099Z,18752.00
2019-03-18T09:15:55.078Z,15864.00
2019-03-18T09:16:55.096Z,13784.00
2019-03-18T09:17:55.057Z,14692.00
2019-03-18T09:18:55.061Z,16508.00
2019-03-18T09:19:55.151Z,22016.00
2019-03-18T09:20:55.031Z,22144.00
2019-03-18T09:21:55.006Z,17504.00
2019-03-18T09:22:55.025Z,11704.00
2019-03-18T09:23:54.994Z,10396.00
2019-03-18T09:24:55.115Z,10956.00
2019-03-18T09:25:55.089Z,11396.00
2019-03-18T09:27:02.321Z,11960.00
2019-03-18T09:27:55.963Z,12456.00
2019-03-18T09:28:54.998Z,12432.00
2019-03-18T09:29:54.991Z,12304.00
2019-03-18T09:30:54.911Z,12816.00
2019-03-18T09:31:54.940Z,14688.00
2019-03-18T09:32:54.898Z,16896.00
2019-03-18T09:33:54.962Z,21280.00
2019-03-18T09:34:54.966Z,19936.00
2019-03-18T09:35:54.954Z,21120.00
2019-03-18T09:36:54.911Z,23520.00
2019-03-18T09:37:54.885Z,23744.00
2019-03-18T09:38:54.821Z,21056.00
2019-03-18T09:39:54.817Z,16928.00
2019-03-18T09:40:54.806Z,14868.00
2019-03-18T09:41:54.790Z,14448.00
2019-03-18T09:43:03.622Z,14592.00
2019-03-18T09:43:54.781Z,14652.00
2019-03-18T09:44:54.762Z,14824.00
2019-03-18T09:45:54.758Z,14108.00
2019-03-18T09:46:54.750Z,13412.00
2019-03-18T09:47:56.293Z,13412.00
2019-03-18T09:48:54.739Z,13144.00
2019-03-18T09:49:54.712Z,12444.00
2019-03-18T09:50:54.711Z,13100.00
2019-03-18T09:51:54.679Z,15652.00
2019-03-18T09:52:54.744Z,17052.00
2019-03-18T09:53:54.676Z,19168.00
2019-03-18T09:54:54.688Z,18944.00
2019-03-18T09:55:54.659Z,22240.00
2019-03-18T09:56:54.631Z,19456.00
2019-03-18T09:57:54.619Z,19136.00
2019-03-18T09:58:54.638Z,17344.00
2019-03-18T09:59:54.652Z,14628.00
2019-03-18T10:00:55.549Z,13944.00
2019-03-18T10:01:54.571Z,15192.00
2019-03-18T10:02:54.567Z,14884.00
2019-03-18T10:03:54.551Z,15172.00
2019-03-18T10:04:54.541Z,14652.00
2019-03-18T10:05:54.554Z,16304.00
2019-03-18T10:06:54.690Z,17984.00
2019-03-18T10:07:54.506Z,19584.00
2019-03-18T10:08:54.497Z,19872.00
2019-03-18T10:09:54.488Z,17056.00
2019-03-18T10:10:54.477Z,13612.00
2019-03-18T10:11:54.466Z,9952.00
2019-03-18T10:12:54.609Z,7288.00
2019-03-18T10:13:54.436Z,7088.00
2019-03-18T10:14:54.430Z,7708.00
2019-03-18T10:15:54.413Z,7920.00
2019-03-18T10:16:54.405Z,8276.00
2019-03-18T10:17:54.391Z,8332.00
2019-03-18T10:18:54.533Z,9616.00
2019-03-18T10:19:54.375Z,10828.00
2019-03-18T10:20:54.380Z,10108.00
2019-03-18T10:21:54.361Z,8900.00
2019-03-18T10:22:54.346Z,6804.00
2019-03-18T10:23:54.350Z,4696.00
2019-03-18T10:24:54.358Z,3492.00
2019-03-18T10:25:54.402Z,3232.00
2019-03-18T10:26:54.293Z,3016.00
2019-03-18T10:27:54.293Z,2820.00
2019-03-18T10:28:54.390Z,2780.00
2019-03-18T10:29:54.332Z,2852.00
2019-03-18T10:30:54.490Z,2856.00
2019-03-18T10:31:54.246Z,2720.00
2019-03-18T10:33:01.803Z,2280.00
2019-03-18T10:34:01.881Z,2140.00
2019-03-18T10:34:54.365Z,2332.00
2019-03-18T10:35:54.359Z,3800.00
2019-03-18T10:36:54.308Z,5892.00
2019-03-18T10:37:54.187Z,8560.00
2019-03-18T10:38:54.210Z,11840.00
2019-03-18T10:39:54.168Z,14892.00
2019-03-18T10:40:54.141Z,17888.00
2019-03-18T10:41:54.139Z,19296.00
2019-03-18T10:42:54.160Z,19360.00
2019-03-18T10:43:54.129Z,19424.00
2019-03-18T10:44:54.104Z,19712.00
2019-03-18T10:45:54.111Z,18976.00
2019-03-18T10:46:54.325Z,17536.00
2019-03-18T10:47:55.009Z,16200.00
2019-03-18T10:48:55.213Z,14924.00
2019-03-18T10:49:54.126Z,13220.00
2019-03-18T10:50:54.053Z,11520.00
2019-03-18T10:51:54.151Z,10236.00
2019-03-18T10:52:54.057Z,9884.00
2019-03-18T10:53:54.147Z,10192.00
2019-03-18T10:54:54.241Z,11076.00
2019-03-18T10:55:53.979Z,12172.00
2019-03-18T10:56:54.159Z,13152.00
2019-03-18T10:57:53.966Z,13444.00
2019-03-18T10:58:53.949Z,13612.00
2019-03-18T10:59:53.934Z,12576.00
2019-03-18T11:00:55.219Z,11696.00
2019-03-18T11:01:54.936Z,10724.00
2019-03-18T11:02:53.964Z,9896.00
2019-03-18T11:03:54.148Z,10152.00
2019-03-18T11:04:54.006Z,11432.00
2019-03-18T11:05:53.954Z,13828.00
2019-03-18T11:06:54.341Z,16144.00
2019-03-18T11:07:53.987Z,19360.00
2019-03-18T11:08:53.912Z,23488.00
2019-03-18T11:09:54.881Z,25344.00
2019-03-18T11:10:54.015Z,22656.00
2019-03-18T11:11:53.879Z,19040.00
2019-03-18T11:12:55.187Z,20032.00
2019-03-18T11:14:00.936Z,21536.00
2019-03-18T11:14:58.242Z,21408.00
2019-03-18T11:16:03.988Z,21152.00
2019-03-18T11:17:24.103Z,21216.00
2019-03-18T11:18:38.138Z,20928.00
2019-03-18T11:19:05.907Z,20320.00
2019-03-18T11:19:58.702Z,19616.00
2019-03-18T11:20:59.276Z,21184.00
2019-03-18T11:22:02.783Z,23296.00
2019-03-18T11:22:56.978Z,23616.00
2019-03-18T11:24:01.702Z,22176.00
2019-03-18T11:25:01.658Z,21056.00
2019-03-18T11:26:06.040Z,18272.00
2019-03-18T11:27:56.566Z,17440.00
2019-03-18T11:28:57.720Z,18816.00
2019-03-18T11:29:58.936Z,20512.00
2019-03-18T11:30:55.165Z,22784.00
2019-03-18T11:31:54.891Z,22496.00
2019-03-18T11:32:53.628Z,23136.00
2019-03-18T11:33:53.581Z,20832.00
2019-03-18T11:34:53.568Z,20864.00
2019-03-18T11:35:55.720Z,21952.00
2019-03-18T11:36:53.616Z,22336.00
2019-03-18T11:37:53.521Z,21984.00
2019-03-18T11:38:53.510Z,21920.00
2019-03-18T11:39:53.503Z,23040.00
2019-03-18T11:40:53.490Z,24128.00
2019-03-18T11:41:53.603Z,24608.00
2019-03-18T11:42:53.467Z,22208.00
2019-03-18T11:43:53.456Z,19552.00
2019-03-18T11:44:53.472Z,17376.00
2019-03-18T11:45:53.441Z,15560.00
2019-03-18T11:46:53.429Z,15060.00
2019-03-18T11:47:53.552Z,15088.00
2019-03-18T11:48:53.414Z,16000.00
2019-03-18T11:49:53.402Z,17728.00
2019-03-18T11:50:53.378Z,19136.00
2019-03-18T11:51:53.380Z,20096.00
2019-03-18T11:52:53.384Z,20864.00
2019-03-18T11:53:53.468Z,25056.00
2019-03-18T11:54:53.382Z,31360.00
2019-03-18T11:55:53.401Z,27744.00
2019-03-18T11:56:53.312Z,24768.00
2019-03-18T11:57:53.350Z,14804.00
2019-03-18T11:58:53.295Z,12516.00
2019-03-18T11:59:53.420Z,11844.00
2019-03-18T12:00:53.271Z,10956.00
2019-03-18T12:01:53.290Z,9432.00
2019-03-18T12:02:53.260Z,6912.00
2019-03-18T12:03:53.262Z,4980.00
2019-03-18T12:04:53.252Z,4288.00
2019-03-18T12:05:53.354Z,4380.00
2019-03-18T12:06:53.364Z,4492.00
2019-03-18T12:07:53.373Z,5040.00
2019-03-18T12:08:53.184Z,5420.00
2019-03-18T12:09:53.174Z,6400.00
2019-03-18T12:10:53.161Z,9488.00
2019-03-18T12:11:53.294Z,13144.00
2019-03-18T12:12:53.202Z,15164.00
2019-03-18T12:13:53.139Z,16880.00
2019-03-18T12:14:53.119Z,19104.00
2019-03-18T12:15:53.145Z,19584.00
2019-03-18T12:16:53.195Z,18464.00
2019-03-18T12:17:53.197Z,17888.00
2019-03-18T12:18:53.103Z,17032.00
2019-03-18T12:19:53.076Z,15212.00
2019-03-18T12:20:53.063Z,14800.00
2019-03-18T12:21:53.049Z,14180.00
2019-03-18T12:22:53.040Z,36576.00
2019-03-18T12:23:53.774Z,38080.00
2019-03-18T12:24:53.019Z,38432.00
2019-03-18T12:25:53.016Z,31648.00
2019-03-18T12:26:52.987Z,41056.00
2019-03-18T12:27:52.977Z,41888.00
2019-03-18T12:28:52.976Z,47584.00
2019-03-18T12:29:53.149Z,19424.00
2019-03-18T12:31:00.652Z,17304.00
2019-03-18T12:32:00.551Z,16664.00